Eau Claire, WI

5:42 AM CDT on October 02, 2014 (GMT -0500)
Memorial High area | Change Station
CLOSE
Current Station
Personal Weather Station
Location: Eau Claire, WI
Elevation: 880 ft
Nearby Weather Stations

Elev 880 ft 44.80 °N, 91.48 °W | Updated 13 seconds ago

Overcast
Overcast
55.9 °F
Feels Like 55.9 °F
N
0.0
Wind Variable Wind from NE
Gusts 2.2 mph

Today
High -- | Low -- °F
--% Chance of Precip.
Yesterday
High -- | Low -- °F
Precip. -- in
7:05 AM 6:44 PM
First Quarter, 57% visible
Pressure 29.91 in
Visibility 10.0 miles
Clouds Scattered Clouds 1100 ft
Mostly Cloudy 2500 ft
Overcast 6500 ft
Dew Point 56 °F
Humidity 99%
Rainfall 0.00 in
Snow Depth Not available.
UV 0 out of 12
Pollen .40 out of 12
Air Quality Not available.
Flu Activity Not available.
METAR KEAU 011133Z 12011KT 10SM SCT011 BKN025 OVC065 09/06 A2991 RMK AO2 T00890061 $

More Conditions Fewer Conditions

Pressure 29.91 in
Visibility 10.0 miles
Clouds Scattered Clouds 1100 ft
Mostly Cloudy 2500 ft
Overcast 6500 ft
Dew Point 56 °F
Humidity 99%
Rainfall 0.00 in
Snow Depth Not available.
UV 0 out of 12
Pollen .40 out of 12
Air Quality Not available.
Flu Activity Not available.
METAR KEAU 011133Z 12011KT 10SM SCT011 BKN025 OVC065 09/06 A2991 RMK AO2 T00890061 $

More Conditions Fewer Conditions

10-Day Weather Forecast

Almanac

Astronomy

Oct. 02, 2014 Rise Set
Actual Time 7:05 AM CDT 6:44 PM CDT
Civil Twilight 6:35 AM CDT 7:13 PM CDT
Nautical Twilight 6:02 AM CDT 7:47 PM CDT
Astronomical Twilight 5:27 AM CDT 8:21 PM CDT
Moon 3:04 PM CDT 12:08 AM CDT
Length of Visible Light 12h 37m
Length of Day
11h 39m
Tomorrow will be 3m 5s shorter.
First Quarter, 57% of the Moon is Illuminated
Today
First Quarter
Oct 8
Full
Oct 15
Last Quarter
Oct 23
New
Oct 30
First Quarter

Today's Extremes

State Highs State Lows

Community

WunderPhotos

Upload Photos

1,758,210 photos uploaded!

WunderBlogs® & News

Nearby

Snow Depth

Station Depth Elevation
No new snow has been reported.

Earthquake Activity

City Distance Mag. Time & Date
No recent earthquake activity has been reported nearby.
Minimum magnitude displayed is 2.5.

Coastal Water Temperatures

Place Temperature
No Stations Reporting

Nearby Weather Stations